sensor_id;sensor_type;location;lat;lon;timestamp;temperature;humidity
67557;DHT22;54387;53.526;49.300;2022-09-09T00:02:24;10.00;70.10
67557;DHT22;54387;53.526;49.300;2022-09-09T00:05:14;9.90;70.00
67557;DHT22;54387;53.526;49.300;2022-09-09T00:07:48;9.90;70.10
67557;DHT22;54387;53.526;49.300;2022-09-09T00:10:29;9.90;70.10
67557;DHT22;54387;53.526;49.300;2022-09-09T00:23:54;10.00;70.10
67557;DHT22;54387;53.526;49.300;2022-09-09T00:26:36;10.00;70.10
67557;DHT22;54387;53.526;49.300;2022-09-09T00:31:45;10.10;70.10
67557;DHT22;54387;53.526;49.300;2022-09-09T00:34:14;10.10;69.90
67557;DHT22;54387;53.526;49.300;2022-09-09T00:36:43;10.10;69.90
67557;DHT22;54387;53.526;49.300;2022-09-09T00:39:37;10.10;69.80
67557;DHT22;54387;53.526;49.300;2022-09-09T00:48:01;10.10;69.60
67557;DHT22;54387;53.526;49.300;2022-09-09T00:53:51;10.00;69.60
67557;DHT22;54387;53.526;49.300;2022-09-09T00:56:34;10.10;69.70
67557;DHT22;54387;53.526;49.300;2022-09-09T00:59:26;10.10;69.60
67557;DHT22;54387;53.526;49.300;2022-09-09T01:01:54;10.00;69.50
67557;DHT22;54387;53.526;49.300;2022-09-09T01:04:32;10.00;69.50
67557;DHT22;54387;53.526;49.300;2022-09-09T01:07:13;10.00;69.50
67557;DHT22;54387;53.526;49.300;2022-09-09T01:09:59;10.00;69.60
67557;DHT22;54387;53.526;49.300;2022-09-09T01:12:38;10.00;69.70
67557;DHT22;54387;53.526;49.300;2022-09-09T01:15:26;10.00;69.70
67557;DHT22;54387;53.526;49.300;2022-09-09T01:18:02;10.00;69.70
67557;DHT22;54387;53.526;49.300;2022-09-09T01:20:49;10.00;69.70
67557;DHT22;54387;53.526;49.300;2022-09-09T01:23:44;10.00;69.60
67557;DHT22;54387;53.526;49.300;2022-09-09T01:26:32;10.00;69.60
67557;DHT22;54387;53.526;49.300;2022-09-09T01:29:00;9.90;69.60
67557;DHT22;54387;53.526;49.300;2022-09-09T01:31:31;9.90;69.70
67557;DHT22;54387;53.526;49.300;2022-09-09T01:33:58;9.90;69.70
67557;DHT22;54387;53.526;49.300;2022-09-09T01:39:06;9.90;69.80
67557;DHT22;54387;53.526;49.300;2022-09-09T01:41:32;9.90;69.80
67557;DHT22;54387;53.526;49.300;2022-09-09T01:43:58;10.00;69.70
67557;DHT22;54387;53.526;49.300;2022-09-09T01:46:25;10.00;69.80
67557;DHT22;54387;53.526;49.300;2022-09-09T01:48:52;10.00;69.60
67557;DHT22;54387;53.526;49.300;2022-09-09T01:51:19;10.00;69.60
67557;DHT22;54387;53.526;49.300;2022-09-09T01:53:45;10.00;69.60
67557;DHT22;54387;53.526;49.300;2022-09-09T02:04:51;10.00;69.60
67557;DHT22;54387;53.526;49.300;2022-09-09T02:07:30;10.00;69.50
67557;DHT22;54387;53.526;49.300;2022-09-09T02:10:19;10.10;70.10
67557;DHT22;54387;53.526;49.300;2022-09-09T02:12:51;10.00;69.40
67557;DHT22;54387;53.526;49.300;2022-09-09T02:15:47;10.00;69.40
67557;DHT22;54387;53.526;49.300;2022-09-09T02:18:26;10.00;69.40
67557;DHT22;54387;53.526;49.300;2022-09-09T02:20:53;9.90;69.40
67557;DHT22;54387;53.526;49.300;2022-09-09T02:23:20;9.90;69.40
67557;DHT22;54387;53.526;49.300;2022-09-09T02:25:48;9.90;69.40
67557;DHT22;54387;53.526;49.300;2022-09-09T02:28:18;9.90;69.40
67557;DHT22;54387;53.526;49.300;2022-09-09T02:30:48;9.90;69.40
67557;DHT22;54387;53.526;49.300;2022-09-09T02:33:27;9.90;69.50
67557;DHT22;54387;53.526;49.300;2022-09-09T02:35:55;9.80;69.40
67557;DHT22;54387;53.526;49.300;2022-09-09T02:38:33;9.90;69.50
67557;DHT22;54387;53.526;49.300;2022-09-09T02:41:01;9.80;69.40
67557;DHT22;54387;53.526;49.300;2022-09-09T02:43:32;9.90;69.50
67557;DHT22;54387;53.526;49.300;2022-09-09T02:46:03;9.80;69.50
67557;DHT22;54387;53.526;49.300;2022-09-09T02:49:40;9.90;69.50
67557;DHT22;54387;53.526;49.300;2022-09-09T02:56:52;9.90;69.40
67557;DHT22;54387;53.526;49.300;2022-09-09T02:59:21;9.90;69.30
67557;DHT22;54387;53.526;49.300;2022-09-09T03:01:47;9.90;69.40
67557;DHT22;54387;53.526;49.300;2022-09-09T03:04:14;9.90;69.30
67557;DHT22;54387;53.526;49.300;2022-09-09T03:06:41;9.80;69.30
67557;DHT22;54387;53.526;49.300;2022-09-09T03:09:07;9.80;69.90
67557;DHT22;54387;53.526;49.300;2022-09-09T03:11:36;9.70;69.40
67557;DHT22;54387;53.526;49.300;2022-09-09T03:14:04;9.70;69.50
67557;DHT22;54387;53.526;49.300;2022-09-09T03:16:31;9.70;69.60
67557;DHT22;54387;53.526;49.300;2022-09-09T03:18:58;9.60;69.60
67557;DHT22;54387;53.526;49.300;2022-09-09T03:21:24;9.60;69.80
67557;DHT22;54387;53.526;49.300;2022-09-09T03:23:50;9.60;69.90
67557;DHT22;54387;53.526;49.300;2022-09-09T03:26:17;9.70;69.90
67557;DHT22;54387;53.526;49.300;2022-09-09T03:28:43;9.80;69.90
67557;DHT22;54387;53.526;49.300;2022-09-09T03:31:11;9.90;70.00
67557;DHT22;54387;53.526;49.300;2022-09-09T03:33:37;10.00;70.00
67557;DHT22;54387;53.526;49.300;2022-09-09T03:36:04;10.10;69.80
67557;DHT22;54387;53.526;49.300;2022-09-09T03:38:31;10.20;69.80
67557;DHT22;54387;53.526;49.300;2022-09-09T03:40:57;10.30;69.50
67557;DHT22;54387;53.526;49.300;2022-09-09T03:43:25;10.40;69.30
67557;DHT22;54387;53.526;49.300;2022-09-09T03:45:52;10.40;69.20
67557;DHT22;54387;53.526;49.300;2022-09-09T03:48:18;10.50;69.10
67557;DHT22;54387;53.526;49.300;2022-09-09T03:50:52;10.50;69.10
67557;DHT22;54387;53.526;49.300;2022-09-09T03:53:20;10.50;69.10
67557;DHT22;54387;53.526;49.300;2022-09-09T03:55:49;10.50;68.90
67557;DHT22;54387;53.526;49.300;2022-09-09T03:58:16;10.50;68.90
67557;DHT22;54387;53.526;49.300;2022-09-09T04:01:00;10.40;68.90
67557;DHT22;54387;53.526;49.300;2022-09-09T04:03:28;10.40;69.00
67557;DHT22;54387;53.526;49.300;2022-09-09T04:05:55;10.30;69.10
67557;DHT22;54387;53.526;49.300;2022-09-09T04:08:22;10.20;69.20
67557;DHT22;54387;53.526;49.300;2022-09-09T04:10:53;10.20;69.30
67557;DHT22;54387;53.526;49.300;2022-09-09T04:13:20;10.10;69.40
67557;DHT22;54387;53.526;49.300;2022-09-09T04:15:52;10.10;69.60
67557;DHT22;54387;53.526;49.300;2022-09-09T04:18:19;10.30;69.90
67557;DHT22;54387;53.526;49.300;2022-09-09T04:20:49;10.50;70.00
67557;DHT22;54387;53.526;49.300;2022-09-09T04:23:16;10.70;69.70
67557;DHT22;54387;53.526;49.300;2022-09-09T04:25:49;11.00;69.60
67557;DHT22;54387;53.526;49.300;2022-09-09T04:28:16;11.20;68.90
67557;DHT22;54387;53.526;49.300;2022-09-09T04:30:44;11.40;68.60
67557;DHT22;54387;53.526;49.300;2022-09-09T04:33:10;11.60;68.00
67557;DHT22;54387;53.526;49.300;2022-09-09T04:35:38;11.70;67.40
67557;DHT22;54387;53.526;49.300;2022-09-09T04:38:05;11.70;66.80
67557;DHT22;54387;53.526;49.300;2022-09-09T04:40:35;11.70;66.80
67557;DHT22;54387;53.526;49.300;2022-09-09T04:43:03;11.80;67.00
67557;DHT22;54387;53.526;49.300;2022-09-09T04:45:32;11.90;66.70
67557;DHT22;54387;53.526;49.300;2022-09-09T04:47:59;12.00;66.90
67557;DHT22;54387;53.526;49.300;2022-09-09T04:50:25;12.20;66.60
67557;DHT22;54387;53.526;49.300;2022-09-09T04:52:51;12.40;66.00
67557;DHT22;54387;53.526;49.300;2022-09-09T04:55:17;12.50;65.70
67557;DHT22;54387;53.526;49.300;2022-09-09T04:57:44;12.60;64.70
67557;DHT22;54387;53.526;49.300;2022-09-09T05:00:10;12.60;64.40
67557;DHT22;54387;53.526;49.300;2022-09-09T05:02:40;12.60;64.20
67557;DHT22;54387;53.526;49.300;2022-09-09T05:05:08;12.50;63.70
67557;DHT22;54387;53.526;49.300;2022-09-09T05:07:34;12.50;64.00
67557;DHT22;54387;53.526;49.300;2022-09-09T05:10:00;12.50;64.10
67557;DHT22;54387;53.526;49.300;2022-09-09T05:12:30;12.60;64.20
67557;DHT22;54387;53.526;49.300;2022-09-09T05:14:57;12.60;64.40
67557;DHT22;54387;53.526;49.300;2022-09-09T05:17:23;12.80;64.30
67557;DHT22;54387;53.526;49.300;2022-09-09T05:19:50;12.90;63.70
67557;DHT22;54387;53.526;49.300;2022-09-09T05:22:20;13.10;63.30
67557;DHT22;54387;53.526;49.300;2022-09-09T05:24:47;13.20;63.30
67557;DHT22;54387;53.526;49.300;2022-09-09T05:27:13;13.20;62.80
67557;DHT22;54387;53.526;49.300;2022-09-09T05:29:41;13.20;62.60
67557;DHT22;54387;53.526;49.300;2022-09-09T05:32:10;13.10;62.60
67557;DHT22;54387;53.526;49.300;2022-09-09T05:34:36;12.90;62.40
67557;DHT22;54387;53.526;49.300;2022-09-09T05:37:03;12.80;62.70
67557;DHT22;54387;53.526;49.300;2022-09-09T05:39:30;12.80;62.90
67557;DHT22;54387;53.526;49.300;2022-09-09T05:41:56;12.80;62.90
67557;DHT22;54387;53.526;49.300;2022-09-09T05:44:22;12.80;63.00
67557;DHT22;54387;53.526;49.300;2022-09-09T05:46:53;12.80;62.70
67557;DHT22;54387;53.526;49.300;2022-09-09T05:49:20;12.90;62.60
67557;DHT22;54387;53.526;49.300;2022-09-09T05:51:47;12.90;62.60
67557;DHT22;54387;53.526;49.300;2022-09-09T05:54:13;13.20;62.40
67557;DHT22;54387;53.526;49.300;2022-09-09T05:56:41;13.40;62.00
67557;DHT22;54387;53.526;49.300;2022-09-09T05:59:07;13.50;61.30
67557;DHT22;54387;53.526;49.300;2022-09-09T06:01:36;13.60;61.00
67557;DHT22;54387;53.526;49.300;2022-09-09T06:04:06;13.60;61.00
67557;DHT22;54387;53.526;49.300;2022-09-09T06:06:35;13.80;60.90
67557;DHT22;54387;53.526;49.300;2022-09-09T06:09:06;13.80;60.60
67557;DHT22;54387;53.526;49.300;2022-09-09T06:11:37;13.90;60.70
67557;DHT22;54387;53.526;49.300;2022-09-09T06:14:04;13.90;60.20
67557;DHT22;54387;53.526;49.300;2022-09-09T06:16:31;14.00;60.50
67557;DHT22;54387;53.526;49.300;2022-09-09T06:19:03;14.10;59.20
67557;DHT22;54387;53.526;49.300;2022-09-09T06:21:30;14.10;59.50
67557;DHT22;54387;53.526;49.300;2022-09-09T06:23:58;14.10;59.20
67557;DHT22;54387;53.526;49.300;2022-09-09T06:26:30;14.10;59.90
67557;DHT22;54387;53.526;49.300;2022-09-09T06:28:58;13.90;57.10
67557;DHT22;54387;53.526;49.300;2022-09-09T06:31:26;13.70;56.90
67557;DHT22;54387;53.526;49.300;2022-09-09T06:33:57;13.70;56.80
67557;DHT22;54387;53.526;49.300;2022-09-09T06:36:26;13.60;56.50
67557;DHT22;54387;53.526;49.300;2022-09-09T06:38:53;13.50;56.40
67557;DHT22;54387;53.526;49.300;2022-09-09T06:41:20;13.40;56.80
67557;DHT22;54387;53.526;49.300;2022-09-09T06:43:47;13.30;57.20
67557;DHT22;54387;53.526;49.300;2022-09-09T06:46:15;13.40;57.20
67557;DHT22;54387;53.526;49.300;2022-09-09T06:48:43;13.40;57.30
67557;DHT22;54387;53.526;49.300;2022-09-09T06:51:12;13.50;57.20
67557;DHT22;54387;53.526;49.300;2022-09-09T06:53:41;13.50;57.20
67557;DHT22;54387;53.526;49.300;2022-09-09T06:58:40;13.70;57.00
67557;DHT22;54387;53.526;49.300;2022-09-09T07:01:14;13.70;56.90
67557;DHT22;54387;53.526;49.300;2022-09-09T07:03:42;13.70;57.00
67557;DHT22;54387;53.526;49.300;2022-09-09T07:06:20;13.80;57.30
67557;DHT22;54387;53.526;49.300;2022-09-09T07:08:51;14.00;57.50
67557;DHT22;54387;53.526;49.300;2022-09-09T07:11:18;14.10;57.00
67557;DHT22;54387;53.526;49.300;2022-09-09T07:13:44;14.20;57.20
67557;DHT22;54387;53.526;49.300;2022-09-09T07:16:14;14.20;57.30
67557;DHT22;54387;53.526;49.300;2022-09-09T07:18:41;14.30;57.20
67557;DHT22;54387;53.526;49.300;2022-09-09T07:21:10;14.40;57.00
67557;DHT22;54387;53.526;49.300;2022-09-09T07:23:36;14.40;56.70
67557;DHT22;54387;53.526;49.300;2022-09-09T07:26:06;14.50;55.30
67557;DHT22;54387;53.526;49.300;2022-09-09T07:28:33;14.60;55.40
67557;DHT22;54387;53.526;49.300;2022-09-09T07:31:01;14.60;55.20
67557;DHT22;54387;53.526;49.300;2022-09-09T07:33:33;14.60;53.30
67557;DHT22;54387;53.526;49.300;2022-09-09T07:36:05;14.90;52.70
67557;DHT22;54387;53.526;49.300;2022-09-09T07:38:44;15.10;51.50
67557;DHT22;54387;53.526;49.300;2022-09-09T07:41:18;15.20;51.10
67557;DHT22;54387;53.526;49.300;2022-09-09T07:43:46;15.20;50.70
67557;DHT22;54387;53.526;49.300;2022-09-09T07:46:14;15.20;51.20
67557;DHT22;54387;53.526;49.300;2022-09-09T07:48:49;15.20;51.50
67557;DHT22;54387;53.526;49.300;2022-09-09T07:51:21;15.30;50.70
67557;DHT22;54387;53.526;49.300;2022-09-09T07:53:51;15.30;50.90
67557;DHT22;54387;53.526;49.300;2022-09-09T07:56:33;15.40;51.30
67557;DHT22;54387;53.526;49.300;2022-09-09T07:58:59;15.70;51.50
67557;DHT22;54387;53.526;49.300;2022-09-09T08:01:50;15.80;50.60
67557;DHT22;54387;53.526;49.300;2022-09-09T08:04:21;15.70;50.20
67557;DHT22;54387;53.526;49.300;2022-09-09T08:06:51;15.70;50.10
67557;DHT22;54387;53.526;49.300;2022-09-09T08:09:19;15.60;50.50
67557;DHT22;54387;53.526;49.300;2022-09-09T08:11:47;15.50;51.40
67557;DHT22;54387;53.526;49.300;2022-09-09T08:14:13;15.40;52.20
67557;DHT22;54387;53.526;49.300;2022-09-09T08:16:43;15.40;52.00
67557;DHT22;54387;53.526;49.300;2022-09-09T08:19:09;15.60;52.40
67557;DHT22;54387;53.526;49.300;2022-09-09T08:21:37;15.80;52.90
67557;DHT22;54387;53.526;49.300;2022-09-09T08:24:06;15.90;53.20
67557;DHT22;54387;53.526;49.300;2022-09-09T08:26:38;15.80;53.80
67557;DHT22;54387;53.526;49.300;2022-09-09T08:29:06;15.60;54.40
67557;DHT22;54387;53.526;49.300;2022-09-09T08:31:35;15.50;54.80
67557;DHT22;54387;53.526;49.300;2022-09-09T08:34:02;15.40;55.30
67557;DHT22;54387;53.526;49.300;2022-09-09T08:36:32;15.30;56.00
67557;DHT22;54387;53.526;49.300;2022-09-09T08:39:02;15.20;56.40
67557;DHT22;54387;53.526;49.300;2022-09-09T08:52:25;14.80;54.70
67557;DHT22;54387;53.526;49.300;2022-09-09T08:54:56;14.50;55.30
67557;DHT22;54387;53.526;49.300;2022-09-09T08:57:28;14.30;54.50
67557;DHT22;54387;53.526;49.300;2022-09-09T08:59:57;14.10;55.40
67557;DHT22;54387;53.526;49.300;2022-09-09T09:02:48;14.00;56.30
67557;DHT22;54387;53.526;49.300;2022-09-09T09:05:39;14.00;56.90
67557;DHT22;54387;53.526;49.300;2022-09-09T09:08:24;14.30;56.80
67557;DHT22;54387;53.526;49.300;2022-09-09T09:10:55;14.60;53.60
67557;DHT22;54387;53.526;49.300;2022-09-09T09:13:59;14.60;52.30
67557;DHT22;54387;53.526;49.300;2022-09-09T09:16:41;14.60;52.40
67557;DHT22;54387;53.526;49.300;2022-09-09T09:19:14;14.90;52.20
67557;DHT22;54387;53.526;49.300;2022-09-09T09:22:06;15.40;51.70
67557;DHT22;54387;53.526;49.300;2022-09-09T09:27:14;17.40;48.00
67557;DHT22;54387;53.526;49.300;2022-09-09T09:29:42;17.90;44.90
67557;DHT22;54387;53.526;49.300;2022-09-09T09:32:13;17.80;43.20
67557;DHT22;54387;53.526;49.300;2022-09-09T09:34:41;17.70;43.60
67557;DHT22;54387;53.526;49.300;2022-09-09T09:37:20;17.70;42.90
67557;DHT22;54387;53.526;49.300;2022-09-09T09:39:49;17.80;42.90
67557;DHT22;54387;53.526;49.300;2022-09-09T09:42:17;18.40;42.80
67557;DHT22;54387;53.526;49.300;2022-09-09T09:44:43;18.90;41.20
67557;DHT22;54387;53.526;49.300;2022-09-09T09:47:19;19.80;40.50
67557;DHT22;54387;53.526;49.300;2022-09-09T09:52:24;21.60;37.50
67557;DHT22;54387;53.526;49.300;2022-09-09T09:54:53;21.80;35.80
67557;DHT22;54387;53.526;49.300;2022-09-09T09:57:28;21.50;35.60
67557;DHT22;54387;53.526;49.300;2022-09-09T10:00:22;20.90;35.40
67557;DHT22;54387;53.526;49.300;2022-09-09T10:02:49;20.80;36.80
67557;DHT22;54387;53.526;49.300;2022-09-09T10:08:11;21.90;35.40
67557;DHT22;54387;53.526;49.300;2022-09-09T10:11:09;21.80;35.60
67557;DHT22;54387;53.526;49.300;2022-09-09T10:19:06;20.20;38.50
67557;DHT22;54387;53.526;49.300;2022-09-09T10:27:42;23.90;34.40
67557;DHT22;54387;53.526;49.300;2022-09-09T10:30:21;25.10;32.80
67557;DHT22;54387;53.526;49.300;2022-09-09T10:33:22;25.10;31.90
67557;DHT22;54387;53.526;49.300;2022-09-09T10:36:13;24.40;33.50
67557;DHT22;54387;53.526;49.300;2022-09-09T10:55:26;19.80;42.10
67557;DHT22;54387;53.526;49.300;2022-09-09T10:57:56;21.60;38.40
67557;DHT22;54387;53.526;49.300;2022-09-09T11:00:44;23.30;35.40
67557;DHT22;54387;53.526;49.300;2022-09-09T11:03:23;25.10;32.30
67557;DHT22;54387;53.526;49.300;2022-09-09T11:05:57;26.80;30.50
67557;DHT22;54387;53.526;49.300;2022-09-09T11:08:30;27.40;29.00
67557;DHT22;54387;53.526;49.300;2022-09-09T11:16:40;25.10;28.90
67557;DHT22;54387;53.526;49.300;2022-09-09T11:19:33;24.90;28.90
67557;DHT22;54387;53.526;49.300;2022-09-09T11:22:03;23.90;29.80
67557;DHT22;54387;53.526;49.300;2022-09-09T11:24:39;22.50;31.60
67557;DHT22;54387;53.526;49.300;2022-09-09T11:27:29;21.50;33.80
67557;DHT22;54387;53.526;49.300;2022-09-09T11:30:21;20.60;36.00
67557;DHT22;54387;53.526;49.300;2022-09-09T11:40:39;18.50;40.00
67557;DHT22;54387;53.526;49.300;2022-09-09T11:43:12;18.00;41.70
67557;DHT22;54387;53.526;49.300;2022-09-09T11:45:41;17.60;42.70
67557;DHT22;54387;53.526;49.300;2022-09-09T11:48:35;17.30;43.60
67557;DHT22;54387;53.526;49.300;2022-09-09T11:51:11;16.90;44.40
67557;DHT22;54387;53.526;49.300;2022-09-09T11:54:01;16.60;45.60
67557;DHT22;54387;53.526;49.300;2022-09-09T11:56:43;16.40;47.00
67557;DHT22;54387;53.526;49.300;2022-09-09T11:59:30;16.20;48.10
67557;DHT22;54387;53.526;49.300;2022-09-09T12:04:34;16.20;50.30
67557;DHT22;54387;53.526;49.300;2022-09-09T12:07:19;16.10;52.20
67557;DHT22;54387;53.526;49.300;2022-09-09T12:09:58;15.70;53.60
67557;DHT22;54387;53.526;49.300;2022-09-09T12:12:37;15.10;55.30
67557;DHT22;54387;53.526;49.300;2022-09-09T12:20:15;14.40;56.60
67557;DHT22;54387;53.526;49.300;2022-09-09T12:23:10;14.30;57.00
67557;DHT22;54387;53.526;49.300;2022-09-09T12:25:53;14.30;56.60
67557;DHT22;54387;53.526;49.300;2022-09-09T12:39:59;13.50;57.90
67557;DHT22;54387;53.526;49.300;2022-09-09T12:42:28;13.40;58.00
67557;DHT22;54387;53.526;49.300;2022-09-09T12:45:03;13.20;58.00
67557;DHT22;54387;53.526;49.300;2022-09-09T12:50:38;13.10;58.50
67557;DHT22;54387;53.526;49.300;2022-09-09T12:56:07;13.00;59.40
67557;DHT22;54387;53.526;49.300;2022-09-09T12:58:36;12.90;60.10
67557;DHT22;54387;53.526;49.300;2022-09-09T13:01:05;12.90;60.40
67557;DHT22;54387;53.526;49.300;2022-09-09T13:03:33;12.80;60.90
67557;DHT22;54387;53.526;49.300;2022-09-09T13:06:11;12.70;61.30
67557;DHT22;54387;53.526;49.300;2022-09-09T13:08:38;12.60;61.70
67557;DHT22;54387;53.526;49.300;2022-09-09T13:11:10;12.60;62.20
67557;DHT22;54387;53.526;49.300;2022-09-09T13:13:41;12.60;62.40
67557;DHT22;54387;53.526;49.300;2022-09-09T13:16:22;12.50;62.40
67557;DHT22;54387;53.526;49.300;2022-09-09T13:18:50;12.50;62.70
67557;DHT22;54387;53.526;49.300;2022-09-09T13:21:18;12.30;62.60
67557;DHT22;54387;53.526;49.300;2022-09-09T13:23:49;12.20;63.10
67557;DHT22;54387;53.526;49.300;2022-09-09T13:26:25;12.10;63.40
67557;DHT22;54387;53.526;49.300;2022-09-09T13:28:55;12.00;63.50
67557;DHT22;54387;53.526;49.300;2022-09-09T13:31:35;11.90;63.40
67557;DHT22;54387;53.526;49.300;2022-09-09T13:34:31;11.80;63.40
67557;DHT22;54387;53.526;49.300;2022-09-09T13:37:36;11.60;63.30
67557;DHT22;54387;53.526;49.300;2022-09-09T13:40:06;11.60;63.70
67557;DHT22;54387;53.526;49.300;2022-09-09T13:42:36;11.40;63.60
67557;DHT22;54387;53.526;49.300;2022-09-09T13:45:05;11.40;63.90
67557;DHT22;54387;53.526;49.300;2022-09-09T13:47:36;11.30;64.10
67557;DHT22;54387;53.526;49.300;2022-09-09T13:50:26;11.30;64.20
67557;DHT22;54387;53.526;49.300;2022-09-09T13:52:57;11.30;64.50
67557;DHT22;54387;53.526;49.300;2022-09-09T13:55:29;11.40;64.70
67557;DHT22;54387;53.526;49.300;2022-09-09T13:57:58;11.40;64.70
67557;DHT22;54387;53.526;49.300;2022-09-09T14:00:26;11.50;64.80
67557;DHT22;54387;53.526;49.300;2022-09-09T14:02:52;11.50;64.80
67557;DHT22;54387;53.526;49.300;2022-09-09T14:05:20;11.50;64.80
67557;DHT22;54387;53.526;49.300;2022-09-09T14:07:48;11.50;64.80
67557;DHT22;54387;53.526;49.300;2022-09-09T14:10:15;11.50;65.00
67557;DHT22;54387;53.526;49.300;2022-09-09T14:12:41;11.40;64.80
67557;DHT22;54387;53.526;49.300;2022-09-09T14:15:11;11.40;64.90
67557;DHT22;54387;53.526;49.300;2022-09-09T14:17:37;11.40;64.90
67557;DHT22;54387;53.526;49.300;2022-09-09T14:20:05;11.40;64.90
67557;DHT22;54387;53.526;49.300;2022-09-09T14:22:33;11.40;65.00
67557;DHT22;54387;53.526;49.300;2022-09-09T14:25:00;11.40;64.90
67557;DHT22;54387;53.526;49.300;2022-09-09T14:27:26;11.40;64.50
67557;DHT22;54387;53.526;49.300;2022-09-09T14:29:53;11.40;64.50
67557;DHT22;54387;53.526;49.300;2022-09-09T14:32:19;11.40;64.30
67557;DHT22;54387;53.526;49.300;2022-09-09T14:34:47;11.50;64.30
67557;DHT22;54387;53.526;49.300;2022-09-09T14:37:16;11.50;64.20
67557;DHT22;54387;53.526;49.300;2022-09-09T14:39:43;11.50;64.10
67557;DHT22;54387;53.526;49.300;2022-09-09T14:42:13;11.50;64.10
67557;DHT22;54387;53.526;49.300;2022-09-09T14:44:40;11.50;64.30
67557;DHT22;54387;53.526;49.300;2022-09-09T14:47:07;11.50;64.40
67557;DHT22;54387;53.526;49.300;2022-09-09T14:49:37;11.50;64.40
67557;DHT22;54387;53.526;49.300;2022-09-09T14:52:04;11.50;64.50
67557;DHT22;54387;53.526;49.300;2022-09-09T14:54:31;11.50;64.40
67557;DHT22;54387;53.526;49.300;2022-09-09T14:56:58;11.50;65.00
67557;DHT22;54387;53.526;49.300;2022-09-09T14:59:25;11.40;64.30
67557;DHT22;54387;53.526;49.300;2022-09-09T15:01:51;11.40;64.30
67557;DHT22;54387;53.526;49.300;2022-09-09T15:04:17;11.40;64.30
67557;DHT22;54387;53.526;49.300;2022-09-09T15:06:45;11.40;64.20
67557;DHT22;54387;53.526;49.300;2022-09-09T15:09:14;11.30;64.10
67557;DHT22;54387;53.526;49.300;2022-09-09T15:11:41;11.30;64.10
67557;DHT22;54387;53.526;49.300;2022-09-09T15:14:08;11.20;64.00
67557;DHT22;54387;53.526;49.300;2022-09-09T15:16:37;11.20;64.20
67557;DHT22;54387;53.526;49.300;2022-09-09T15:19:04;11.20;64.30
67557;DHT22;54387;53.526;49.300;2022-09-09T15:21:32;11.10;64.30
67557;DHT22;54387;53.526;49.300;2022-09-09T15:23:59;11.10;64.30
67557;DHT22;54387;53.526;49.300;2022-09-09T15:26:26;11.00;64.40
67557;DHT22;54387;53.526;49.300;2022-09-09T15:28:53;11.00;64.60
67557;DHT22;54387;53.526;49.300;2022-09-09T15:31:25;11.00;64.70
67557;DHT22;54387;53.526;49.300;2022-09-09T15:33:52;10.90;64.80
67557;DHT22;54387;53.526;49.300;2022-09-09T15:36:24;10.90;64.90
67557;DHT22;54387;53.526;49.300;2022-09-09T15:38:51;10.80;64.90
67557;DHT22;54387;53.526;49.300;2022-09-09T15:41:19;10.80;65.10
67557;DHT22;54387;53.526;49.300;2022-09-09T15:43:50;10.70;65.20
67557;DHT22;54387;53.526;49.300;2022-09-09T15:48:44;10.70;65.50
67557;DHT22;54387;53.526;49.300;2022-09-09T15:51:11;10.70;65.60
67557;DHT22;54387;53.526;49.300;2022-09-09T15:53:38;10.80;65.60
67557;DHT22;54387;53.526;49.300;2022-09-09T15:56:07;10.80;65.60
67557;DHT22;54387;53.526;49.300;2022-09-09T15:58:34;10.80;65.60
67557;DHT22;54387;53.526;49.300;2022-09-09T16:01:06;10.70;65.70
67557;DHT22;54387;53.526;49.300;2022-09-09T16:03:37;10.60;65.90
67557;DHT22;54387;53.526;49.300;2022-09-09T16:06:05;10.60;66.10
67557;DHT22;54387;53.526;49.300;2022-09-09T16:08:36;10.60;66.20
67557;DHT22;54387;53.526;49.300;2022-09-09T16:13:36;10.60;66.20
67557;DHT22;54387;53.526;49.300;2022-09-09T16:16:03;10.70;66.10
67557;DHT22;54387;53.526;49.300;2022-09-09T16:18:37;10.70;66.00
67557;DHT22;54387;53.526;49.300;2022-09-09T16:21:05;10.70;65.90
67557;DHT22;54387;53.526;49.300;2022-09-09T16:23:32;10.60;65.90
67557;DHT22;54387;53.526;49.300;2022-09-09T16:26:00;10.60;65.90
67557;DHT22;54387;53.526;49.300;2022-09-09T16:28:27;10.50;65.90
67557;DHT22;54387;53.526;49.300;2022-09-09T16:30:54;10.50;66.00
67557;DHT22;54387;53.526;49.300;2022-09-09T16:33:20;10.40;66.00
67557;DHT22;54387;53.526;49.300;2022-09-09T16:35:46;10.40;66.10
67557;DHT22;54387;53.526;49.300;2022-09-09T16:38:14;10.30;66.20
67557;DHT22;54387;53.526;49.300;2022-09-09T16:40:40;10.30;66.20
67557;DHT22;54387;53.526;49.300;2022-09-09T16:43:07;10.30;66.30
67557;DHT22;54387;53.526;49.300;2022-09-09T16:45:44;10.30;66.30
67557;DHT22;54387;53.526;49.300;2022-09-09T16:48:11;10.30;66.40
67557;DHT22;54387;53.526;49.300;2022-09-09T16:50:37;10.30;66.50
67557;DHT22;54387;53.526;49.300;2022-09-09T16:53:05;10.40;66.60
67557;DHT22;54387;53.526;49.300;2022-09-09T16:55:39;10.40;66.60
67557;DHT22;54387;53.526;49.300;2022-09-09T16:58:06;10.50;66.60
67557;DHT22;54387;53.526;49.300;2022-09-09T17:00:33;10.50;66.50
67557;DHT22;54387;53.526;49.300;2022-09-09T17:02:59;10.60;66.50
67557;DHT22;54387;53.526;49.300;2022-09-09T17:05:26;10.60;66.40
67557;DHT22;54387;53.526;49.300;2022-09-09T17:07:53;10.60;66.40
67557;DHT22;54387;53.526;49.300;2022-09-09T17:10:24;10.70;66.40
67557;DHT22;54387;53.526;49.300;2022-09-09T17:12:50;10.70;66.50
67557;DHT22;54387;53.526;49.300;2022-09-09T17:15:17;10.70;66.50
67557;DHT22;54387;53.526;49.300;2022-09-09T17:17:44;10.80;66.50
67557;DHT22;54387;53.526;49.300;2022-09-09T17:20:11;10.70;66.40
67557;DHT22;54387;53.526;49.300;2022-09-09T17:22:37;10.80;66.40
67557;DHT22;54387;53.526;49.300;2022-09-09T17:25:04;10.70;66.30
67557;DHT22;54387;53.526;49.300;2022-09-09T17:27:30;10.80;66.40
67557;DHT22;54387;53.526;49.300;2022-09-09T17:29:57;10.80;66.20
67557;DHT22;54387;53.526;49.300;2022-09-09T17:32:24;10.80;66.10
67557;DHT22;54387;53.526;49.300;2022-09-09T17:34:50;10.80;66.00
67557;DHT22;54387;53.526;49.300;2022-09-09T17:37:18;10.80;66.00
67557;DHT22;54387;53.526;49.300;2022-09-09T17:39:45;10.70;65.90
67557;DHT22;54387;53.526;49.300;2022-09-09T17:42:11;10.70;65.90
67557;DHT22;54387;53.526;49.300;2022-09-09T17:44:38;10.70;65.90
67557;DHT22;54387;53.526;49.300;2022-09-09T17:47:06;10.60;65.90
67557;DHT22;54387;53.526;49.300;2022-09-09T17:49:32;10.50;65.90
67557;DHT22;54387;53.526;49.300;2022-09-09T17:51:59;10.50;66.00
67557;DHT22;54387;53.526;49.300;2022-09-09T17:54:25;10.60;66.00
67557;DHT22;54387;53.526;49.300;2022-09-09T17:56:52;10.50;65.90